Mamoudzou, Yemen
Current Conditions -  °F | °C
As of 11:00 AM on Monday 20 Oct 2014 (Local Time) from FMCZ Reporting Station
Few Clouds Few Clouds  
Wind Chill: 86°   Ceiling: Unl
Heat Index: 93°   Visibility: 6mi
Dew Point: 73°   Wind: 12mph
Humidity: 66%   Direction: 170°S
Pressure: 29.94"   Gusts: NA
Location:  12.8°S, 45.23°E
Report Text: FMCZ 200800Z 17010KT 9999 FEW025 30/23 Q1014 NOSIG
Loading
Personal Weather Stations






























Interactive Weather Map
Tropical Storm Tracking
New forecast layout! Learn more

10-Day Weather Forecast

Advertisements
Track Severe Weather on mobile